Time;durP1;ratioP1;P1;durP2;ratioP2;P2;SDS_P1;SDS_P2;PMS_P1;PMS_P2;Temp;Humidity;BMP_temperature;BMP_pressure;BME280_temperature;BME280_humidity;BME280_pressure;Samples;Min_cycle;Max_cycle;Signal;HPM_P1;HPM_P2
2022/09/03 00:02:22;;;;;;;2.67;1.10;;;15.40;99.90;;;;;;5014380;28;20037;-85
2022/09/03 00:05:08;;;;;;;2.13;1.08;;;15.30;99.90;;;;;;5009657;28;20121;-85
2022/09/03 00:07:48;;;;;;;4.25;1.30;;;15.30;99.90;;;;;;5008962;28;20115;-85
2022/09/03 00:10:35;;;;;;;2.85;1.10;;;15.20;99.90;;;;;;4995370;28;20120;-85
2022/09/03 00:13:04;;;;;;;5.28;1.40;;;15.20;99.90;;;;;;5019052;28;20489;-86
2022/09/03 00:15:33;;;;;;;2.47;1.10;;;15.20;99.90;;;;;;4986985;28;20052;-85
2022/09/03 00:18:06;;;;;;;1.67;1.10;;;15.10;99.90;;;;;;5016154;28;20376;-85
2022/09/03 00:20:45;;;;;;;1.80;1.10;;;15.10;99.90;;;;;;4985045;28;20044;-85
2022/09/03 00:23:18;;;;;;;1.70;1.10;;;15.10;99.90;;;;;;5016068;28;20050;-84
2022/09/03 00:25:54;;;;;;;3.17;1.20;;;15.00;99.90;;;;;;4986239;28;20038;-84
2022/09/03 00:28:29;;;;;;;1.80;1.33;;;15.00;99.90;;;;;;5017114;28;20030;-85
2022/09/03 00:31:25;;;;;;;3.47;1.40;;;14.90;99.90;;;;;;4988663;28;20083;-84
2022/09/03 00:33:55;;;;;;;2.45;1.30;;;14.90;99.90;;;;;;5034046;28;20105;-84
2022/09/03 00:36:34;;;;;;;1.58;0.80;;;14.90;99.90;;;;;;4988179;28;20095;-84
2022/09/03 00:38:59;;;;;;;2.63;1.38;;;14.90;1.00;;;;;;5016348;28;20038;-85
2022/09/03 00:41:59;;;;;;;2.40;1.10;;;14.80;1.00;;;;;;5004632;28;20117;-85
2022/09/03 00:45:06;;;;;;;3.53;1.40;;;14.80;1.00;;;;;;5019027;28;20048;-85
2022/09/03 00:47:34;;;;;;;1.67;1.30;;;14.70;1.00;;;;;;4942936;28;20518;-86
2022/09/03 00:50:11;;;;;;;4.28;1.25;;;14.70;1.00;;;;;;4976772;28;20134;-85
2022/09/03 00:52:57;;;;;;;3.40;1.25;;;14.60;1.00;;;;;;4984629;28;20657;-85
2022/09/03 00:55:25;;;;;;;;;;;14.50;1.00;;;;;;5014707;28;20096;-85
2022/09/03 00:58:13;;;;;;;3.83;1.20;;;14.50;1.00;;;;;;5016300;28;20031;-85
2022/09/03 01:00:42;;;;;;;9.30;1.50;;;14.50;1.00;;;;;;5017746;28;20057;-84
2022/09/03 01:03:49;;;;;;;2.92;1.30;;;14.50;1.00;;;;;;5021165;28;20520;-84
2022/09/03 01:06:23;;;;;;;4.80;1.42;;;14.50;1.00;;;;;;4992419;28;20048;-85
2022/09/03 01:09:33;;;;;;;1.30;1.10;;;14.40;1.00;;;;;;5007851;28;20099;-85
2022/09/03 01:12:13;;;;;;;2.17;1.15;;;14.40;1.00;;;;;;5015360;28;20034;-84
2022/09/03 01:14:51;;;;;;;4.30;1.27;;;14.30;1.00;;;;;;5018887;28;20118;-85
2022/09/03 01:17:16;;;;;;;2.42;1.42;;;14.30;1.00;;;;;;4993738;28;20034;-85
2022/09/03 01:19:51;;;;;;;3.10;1.20;;;14.30;1.00;;;;;;4993421;28;20127;-85
2022/09/03 01:22:19;;;;;;;4.38;1.20;;;14.30;8.50;;;;;;4998581;28;20048;-86
2022/09/03 01:25:30;;;;;;;2.00;1.13;;;14.30;19.20;;;;;;5011005;28;20049;-85
2022/09/03 01:28:20;;;;;;;5.10;1.63;;;14.30;1.00;;;;;;5039853;28;20693;-85
2022/09/03 01:31:01;;;;;;;2.85;1.20;;;14.20;5.10;;;;;;4987327;28;20120;-85
2022/09/03 01:33:39;;;;;;;2.30;1.30;;;14.20;3.70;;;;;;5008046;28;20033;-86
2022/09/03 01:36:16;;;;;;;3.00;1.48;;;14.20;1.00;;;;;;4996439;28;20034;-84
2022/09/03 01:38:50;;;;;;;1.20;1.10;;;14.20;1.00;;;;;;4994290;28;20046;-85
2022/09/03 01:42:14;;;;;;;2.10;1.20;;;14.20;39.10;;;;;;4991374;28;20393;-84
2022/09/03 01:44:47;;;;;;;2.55;1.20;;;14.10;58.90;;;;;;4986470;28;20386;-85
2022/09/03 01:47:36;;;;;;;2.60;1.20;;;14.10;41.60;;;;;;5020448;28;20612;-84
2022/09/03 01:50:08;;;;;;;3.92;1.38;;;14.00;60.50;;;;;;4991034;28;20389;-85
2022/09/03 01:53:08;;;;;;;2.17;1.23;;;14.00;84.10;;;;;;5036234;28;20030;-85
2022/09/03 01:55:56;;;;;;;3.30;1.27;;;14.00;67.70;;;;;;4986934;28;20102;-84
2022/09/03 01:58:48;;;;;;;2.47;1.13;;;13.90;96.20;;;;;;5014749;28;20477;-84
2022/09/03 02:01:23;;;;;;;3.28;1.33;;;13.90;87.00;;;;;;5017158;28;20427;-85
2022/09/03 02:03:50;;;;;;;2.42;1.30;;;13.90;67.50;;;;;;5017805;28;20073;-84
2022/09/03 02:06:19;;;;;;;1.67;1.20;;;13.90;96.30;;;;;;5007572;28;20065;-85
2022/09/03 02:08:45;;;;;;;2.53;1.50;;;13.90;99.90;;;;;;5006617;28;20046;-84
2022/09/03 02:11:11;;;;;;;5.38;1.30;;;13.90;99.90;;;;;;5013971;28;20052;-85
2022/09/03 02:13:49;;;;;;;3.20;1.20;;;13.90;99.90;;;;;;4995131;28;20041;-85
2022/09/03 02:16:23;;;;;;;2.25;1.70;;;13.90;92.30;;;;;;5017051;28;20513;-84
2022/09/03 02:19:15;;;;;;;1.60;1.30;;;13.90;99.90;;;;;;4990360;28;20117;-85
2022/09/03 02:21:53;;;;;;;2.53;1.23;;;13.80;99.90;;;;;;5008125;28;20056;-85
2022/09/03 02:24:19;;;;;;;3.58;1.48;;;13.80;99.90;;;;;;5007345;28;20107;-84
2022/09/03 02:26:45;;;;;;;2.33;1.35;;;13.80;99.90;;;;;;4989756;28;20463;-86
2022/09/03 02:29:13;;;;;;;1.70;1.40;;;13.70;99.90;;;;;;5003846;28;20149;-84
2022/09/03 02:31:39;;;;;;;2.33;1.20;;;13.70;98.20;;;;;;5021947;28;20509;-84
2022/09/03 02:34:05;;;;;;;5.93;1.52;;;13.70;99.90;;;;;;4989540;28;20049;-85
2022/09/03 02:36:37;;;;;;;1.95;1.25;;;13.70;99.90;;;;;;5019329;28;20481;-84
2022/09/03 02:39:03;;;;;;;4.53;1.38;;;13.70;99.90;;;;;;5011779;28;20034;-85
2022/09/03 02:41:30;;;;;;;1.63;1.20;;;13.80;99.90;;;;;;5015460;28;20034;-85
2022/09/03 02:44:26;;;;;;;2.33;1.30;;;13.80;99.90;;;;;;5019499;28;20602;-84
2022/09/03 02:46:59;;;;;;;;;;;13.80;99.90;;;;;;5036204;28;20042;-85
2022/09/03 02:49:25;;;;;;;2.47;1.20;;;13.90;99.90;;;;;;5044108;28;20258;-85
2022/09/03 02:51:56;;;;;;;2.13;1.35;;;13.90;99.90;;;;;;4988039;28;20038;-85
2022/09/03 02:54:21;;;;;;;2.20;1.15;;;14.00;99.90;;;;;;5019109;28;20034;-84
2022/09/03 02:56:48;;;;;;;3.08;1.38;;;14.10;71.10;;;;;;5009209;28;20045;-84
2022/09/03 02:59:15;;;;;;;1.88;1.50;;;14.10;73.40;;;;;;4990925;28;20056;-84
2022/09/03 03:01:41;;;;;;;6.38;1.27;;;14.10;58.30;;;;;;5020319;28;20056;-86
2022/09/03 03:04:09;;;;;;;2.78;1.20;;;14.20;17.30;;;;;;4992042;28;20034;-85
2022/09/03 03:06:35;;;;;;;2.25;1.17;;;14.30;13.50;;;;;;5003899;28;20045;-84
2022/09/03 03:09:04;;;;;;;2.83;1.45;;;14.30;37.50;;;;;;5018272;28;20092;-85
2022/09/03 03:11:30;;;;;;;2.53;1.30;;;14.30;1.00;;;;;;4992137;28;20121;-85
2022/09/03 03:13:56;;;;;;;2.60;1.42;;;14.40;1.00;;;;;;4992825;28;20040;-85
2022/09/03 03:16:22;;;;;;;2.40;1.50;;;14.40;1.00;;;;;;5007402;28;20029;-85
2022/09/03 03:18:51;;;;;;;2.65;1.35;;;14.40;10.60;;;;;;4991536;28;20053;-85
2022/09/03 03:21:18;;;;;;;3.33;1.50;;;14.40;1.00;;;;;;5017921;28;20332;-85
2022/09/03 03:23:44;;;;;;;2.85;1.58;;;14.40;1.00;;;;;;5010131;28;20493;-85
2022/09/03 03:26:13;;;;;;;1.98;1.30;;;14.50;1.00;;;;;;4991841;28;20502;-85
2022/09/03 03:28:40;;;;;;;3.60;1.35;;;14.50;1.00;;;;;;5015166;28;20045;-85
2022/09/03 03:31:14;;;;;;;3.25;1.40;;;14.50;1.00;;;;;;4990887;28;20033;-85
2022/09/03 03:33:40;;;;;;;2.63;1.38;;;14.50;1.00;;;;;;5007576;28;20046;-84
2022/09/03 03:36:08;;;;;;;2.13;1.40;;;14.50;1.00;;;;;;4997904;28;20132;-85
2022/09/03 03:38:35;;;;;;;2.15;1.40;;;14.50;1.00;;;;;;5007713;28;20037;-85
2022/09/03 03:41:20;;;;;;;3.22;1.30;;;14.50;1.00;;;;;;4990478;28;20435;-86
2022/09/03 03:43:47;;;;;;;3.97;1.35;;;14.40;1.00;;;;;;4981219;28;20106;-84
2022/09/03 03:46:13;;;;;;;3.72;1.63;;;14.40;1.00;;;;;;4971979;28;20081;-84
2022/09/03 03:48:40;;;;;;;4.15;2.00;;;14.40;1.00;;;;;;5024100;28;20053;-85
2022/09/03 03:51:07;;;;;;;1.48;1.30;;;14.40;1.00;;;;;;4979824;28;20486;-85
2022/09/03 03:53:35;;;;;;;3.42;2.10;;;14.40;1.00;;;;;;4982415;28;20285;-85
2022/09/03 03:56:03;;;;;;;3.38;1.90;;;14.40;1.00;;;;;;4989063;28;20048;-85
2022/09/03 03:58:30;;;;;;;3.67;1.80;;;14.40;1.00;;;;;;5008544;28;20544;-84
2022/09/03 04:01:04;;;;;;;2.45;2.00;;;14.40;1.00;;;;;;4997182;28;20088;-85
2022/09/03 04:03:30;;;;;;;2.35;1.75;;;14.40;1.00;;;;;;4987223;28;20130;-84
2022/09/03 04:05:58;;;;;;;2.28;1.65;;;14.30;1.00;;;;;;4994637;28;20053;-85
2022/09/03 04:08:24;;;;;;;2.28;1.63;;;14.30;1.00;;;;;;4991153;28;20401;-85
2022/09/03 04:10:50;;;;;;;5.20;1.88;;;14.30;14.10;;;;;;4987572;28;20037;-85
2022/09/03 04:13:16;;;;;;;2.50;1.58;;;14.30;5.00;;;;;;5022139;28;20038;-85
2022/09/03 04:15:43;;;;;;;3.58;1.55;;;14.30;1.00;;;;;;5013991;28;20062;-84
2022/09/03 04:18:08;;;;;;;2.55;1.45;;;14.30;27.40;;;;;;4984643;28;20042;-84
2022/09/03 04:20:37;;;;;;;4.15;1.60;;;14.20;21.80;;;;;;5001124;28;20317;-84
2022/09/03 04:23:04;;;;;;;2.47;1.63;;;14.30;1.80;;;;;;5013918;28;20478;-84
2022/09/03 04:25:30;;;;;;;4.07;1.70;;;14.20;7.40;;;;;;4981267;28;20056;-85
2022/09/03 04:27:56;;;;;;;5.30;1.90;;;14.20;12.20;;;;;;4985566;28;20050;-85
2022/09/03 04:30:22;;;;;;;3.15;1.60;;;14.20;37.40;;;;;;4979926;28;20042;-84
2022/09/03 04:32:53;;;;;;;3.60;1.70;;;14.20;17.50;;;;;;4994409;28;20068;-84
2022/09/03 04:35:20;;;;;;;1.70;1.55;;;14.20;38.00;;;;;;4988190;28;20508;-84
2022/09/03 04:37:46;;;;;;;2.20;1.85;;;14.20;24.60;;;;;;4993365;28;20063;-84
2022/09/03 04:40:12;;;;;;;2.92;1.83;;;14.20;1.00;;;;;;5017872;28;20353;-84
2022/09/03 04:42:38;;;;;;;2.58;1.90;;;14.20;39.00;;;;;;4997501;28;20034;-84
2022/09/03 04:45:04;;;;;;;3.03;1.70;;;14.20;84.80;;;;;;5026820;28;20614;-84
2022/09/03 04:47:29;;;;;;;2.30;1.90;;;14.20;33.90;;;;;;4986764;28;20061;-84
2022/09/03 04:49:55;;;;;;;2.58;2.00;;;14.20;52.00;;;;;;5015955;28;20142;-84
2022/09/03 04:52:21;;;;;;;4.50;2.42;;;14.10;83.70;;;;;;4992399;28;20376;-84
2022/09/03 04:54:47;;;;;;;1.98;1.63;;;14.10;99.90;;;;;;5015812;28;20072;-85
2022/09/03 04:57:12;;;;;;;2.17;1.90;;;14.10;99.90;;;;;;5012431;28;20151;-84
2022/09/03 04:59:39;;;;;;;4.65;1.77;;;14.10;99.90;;;;;;4989645;28;20439;-84
2022/09/03 05:02:07;;;;;;;2.95;1.83;;;14.10;99.90;;;;;;5018552;28;20072;-84
2022/09/03 05:04:32;;;;;;;3.20;2.25;;;14.10;99.90;;;;;;5005834;28;20520;-84
2022/09/03 05:06:58;;;;;;;2.78;1.83;;;14.10;99.90;;;;;;5019791;28;20114;-85
2022/09/03 05:09:24;;;;;;;2.15;1.85;;;14.00;99.90;;;;;;5019274;28;20079;-85
2022/09/03 05:11:49;;;;;;;3.90;1.95;;;14.10;99.90;;;;;;4992778;28;20251;-85
2022/09/03 05:14:15;;;;;;;6.55;2.20;;;14.10;99.90;;;;;;5037499;28;20113;-84
2022/09/03 05:16:41;;;;;;;1.90;1.65;;;14.10;99.90;;;;;;5031451;28;20041;-83
2022/09/03 05:19:06;;;;;;;3.88;1.70;;;14.10;99.90;;;;;;4994092;28;20465;-85
2022/09/03 05:21:34;;;;;;;4.47;1.90;;;14.10;99.90;;;;;;4985565;28;20040;-84
2022/09/03 05:24:01;;;;;;;2.70;2.08;;;14.20;99.90;;;;;;4992959;28;20106;-85
2022/09/03 05:26:54;;;;;;;4.15;2.20;;;14.20;99.90;;;;;;5011357;28;22008;-85
2022/09/03 05:29:20;;;;;;;3.47;2.10;;;14.30;99.90;;;;;;5022290;28;20530;-85
2022/09/03 05:31:46;;;;;;;4.43;2.33;;;14.30;99.90;;;;;;5018913;28;20045;-85
2022/09/03 05:34:12;;;;;;;5.07;2.08;;;14.40;99.90;;;;;;4994343;28;20033;-85
2022/09/03 05:36:38;;;;;;;3.85;2.20;;;14.40;99.90;;;;;;4977930;28;20041;-86
2022/09/03 05:39:06;;;;;;;3.05;2.05;;;14.40;99.90;;;;;;5015162;28;20308;-85
2022/09/03 05:41:33;;;;;;;3.40;1.92;;;14.40;99.90;;;;;;4995182;28;20374;-85
2022/09/03 05:43:59;;;;;;;4.07;2.03;;;14.50;99.90;;;;;;5009655;28;20731;-84
2022/09/03 05:46:30;;;;;;;3.35;1.90;;;14.50;99.90;;;;;;5015029;28;20033;-85
2022/09/03 05:49:04;;;;;;;5.65;2.08;;;14.50;99.90;;;;;;4991952;28;20069;-85
2022/09/03 05:51:31;;;;;;;3.90;2.10;;;14.50;99.90;;;;;;5010204;28;20038;-85
2022/09/03 05:53:57;;;;;;;2.97;2.30;;;14.50;99.90;;;;;;4989694;28;20038;-84
2022/09/03 05:56:25;;;;;;;3.67;2.00;;;14.50;99.90;;;;;;5020849;28;20041;-84
2022/09/03 05:58:53;;;;;;;3.70;2.20;;;14.40;99.90;;;;;;5010171;28;20449;-84
2022/09/03 06:01:24;;;;;;;2.33;1.80;;;14.50;99.90;;;;;;4988107;28;20038;-84
2022/09/03 06:03:56;;;;;;;2.65;2.00;;;14.60;99.90;;;;;;4995239;28;20433;-85
2022/09/03 06:06:26;;;;;;;4.60;2.17;;;14.60;99.90;;;;;;4993976;28;20100;-85
2022/09/03 06:08:53;;;;;;;5.03;2.10;;;14.60;99.90;;;;;;4991322;28;20343;-85
2022/09/03 06:11:22;;;;;;;3.03;2.03;;;14.60;99.90;;;;;;5016710;28;20044;-85
2022/09/03 06:13:47;;;;;;;3.70;2.30;;;14.60;99.90;;;;;;4993820;28;20319;-86
2022/09/03 06:16:14;;;;;;;3.17;2.22;;;14.60;99.90;;;;;;4990141;28;20148;-86
2022/09/03 06:18:40;;;;;;;2.92;2.17;;;14.70;99.90;;;;;;4994710;28;20046;-85
2022/09/03 06:21:06;;;;;;;4.72;2.00;;;14.70;99.90;;;;;;4981044;28;20044;-84
2022/09/03 06:23:33;;;;;;;4.45;2.05;;;14.80;99.90;;;;;;4991765;28;20037;-85
2022/09/03 06:26:03;;;;;;;3.15;2.08;;;14.90;99.90;;;;;;4993624;28;20528;-85
2022/09/03 06:28:30;;;;;;;4.53;2.10;;;14.90;99.90;;;;;;4992429;28;20107;-84
2022/09/03 06:31:01;;;;;;;5.68;2.13;;;15.00;98.30;;;;;;4993395;28;20433;-84
2022/09/03 06:33:29;;;;;;;8.93;2.40;;;15.00;98.00;;;;;;4994071;28;20044;-84
2022/09/03 06:35:59;;;;;;;3.22;2.00;;;15.10;92.00;;;;;;5016715;28;20030;-85
2022/09/03 06:38:30;;;;;;;2.47;2.20;;;15.10;90.40;;;;;;4991585;28;20041;-86
2022/09/03 06:41:02;;;;;;;6.28;2.28;;;15.20;77.20;;;;;;5017148;28;20040;-85
2022/09/03 06:43:30;;;;;;;3.25;1.98;;;15.30;34.70;;;;;;5015423;28;20049;-85
2022/09/03 06:46:02;;;;;;;3.75;2.08;;;15.30;43.20;;;;;;5030482;28;20041;-85
2022/09/03 06:48:30;;;;;;;2.95;1.98;;;15.40;11.90;;;;;;5017966;28;20041;-85
2022/09/03 06:51:11;;;;;;;3.50;2.10;;;15.40;7.10;;;;;;4979090;28;20574;-84
2022/09/03 06:53:39;;;;;;;3.40;1.95;;;15.40;1.00;;;;;;4996600;28;20090;-84
2022/09/03 06:56:10;;;;;;;3.42;2.00;;;15.50;10.70;;;;;;4992686;28;20114;-84
2022/09/03 06:58:38;;;;;;;4.35;2.30;;;15.50;1.00;;;;;;5010332;28;20049;-84
2022/09/03 07:01:07;;;;;;;3.53;2.10;;;15.60;1.00;;;;;;5008934;28;20127;-85
2022/09/03 07:03:33;;;;;;;2.45;2.00;;;15.70;1.00;;;;;;4992550;28;20095;-85
2022/09/03 07:06:00;;;;;;;4.43;2.05;;;15.70;1.00;;;;;;4986631;28;20055;-85
2022/09/03 07:08:26;;;;;;;2.85;2.10;;;15.80;1.00;;;;;;5015661;28;20052;-85
2022/09/03 07:10:52;;;;;;;4.57;2.50;;;15.80;1.00;;;;;;4994684;28;20033;-85
2022/09/03 07:13:17;;;;;;;4.70;2.28;;;15.90;1.00;;;;;;4995074;28;20064;-85
2022/09/03 07:15:43;;;;;;;3.85;2.08;;;16.00;1.00;;;;;;5034620;28;20034;-85
2022/09/03 07:18:09;;;;;;;2.13;1.85;;;16.10;1.00;;;;;;4994907;28;20454;-85
2022/09/03 07:20:35;;;;;;;4.22;2.15;;;16.20;1.00;;;;;;5006102;28;20073;-85
2022/09/03 07:23:00;;;;;;;3.60;1.98;;;16.30;1.00;;;;;;5036172;28;20120;-86
2022/09/03 07:25:27;;;;;;;4.53;2.08;;;16.30;1.00;;;;;;5017853;28;20131;-85
2022/09/03 07:27:53;;;;;;;4.68;2.20;;;16.30;1.00;;;;;;5023923;28;20048;-85
2022/09/03 07:30:19;;;;;;;2.75;2.10;;;16.40;1.00;;;;;;5003523;28;20041;-85
2022/09/03 07:32:46;;;;;;;5.47;2.00;;;16.50;1.00;;;;;;5008190;28;20337;-85
2022/09/03 07:35:12;;;;;;;3.30;1.95;;;16.60;1.00;;;;;;4986992;28;20037;-85
2022/09/03 07:37:41;;;;;;;4.55;1.90;;;16.70;1.00;;;;;;5035945;28;20170;-85
2022/09/03 07:40:09;;;;;;;3.83;2.20;;;16.70;1.00;;;;;;5031368;28;20430;-83
2022/09/03 07:42:37;;;;;;;4.07;1.70;;;16.80;1.00;;;;;;4993649;28;20037;-85
2022/09/03 07:45:09;;;;;;;2.65;2.00;;;17.00;1.00;;;;;;5006340;28;20041;-85
2022/09/03 07:47:39;;;;;;;2.45;1.80;;;17.10;1.00;;;;;;5018541;28;20041;-84
2022/09/03 07:50:05;;;;;;;2.58;1.83;;;17.10;1.00;;;;;;4996684;28;20060;-85
2022/09/03 07:52:31;;;;;;;6.13;1.88;;;17.10;1.00;;;;;;4995541;28;20029;-85
2022/09/03 07:54:58;;;;;;;3.85;2.15;;;17.30;1.00;;;;;;4985610;28;20383;-85
2022/09/03 07:57:24;;;;;;;3.28;2.00;;;17.40;1.00;;;;;;5015561;28;20133;-85
2022/09/03 07:59:49;;;;;;;2.45;1.80;;;17.50;1.00;;;;;;4986689;28;20175;-85
2022/09/03 08:02:15;;;;;;;2.70;1.83;;;17.60;1.00;;;;;;5003058;28;20045;-84
2022/09/03 08:04:42;;;;;;;4.80;1.88;;;17.50;99.90;;;;;;4988136;28;20457;-85
2022/09/03 08:07:07;;;;;;;4.00;1.85;;;17.70;99.90;;;;;;5019225;28;20057;-84
2022/09/03 08:09:33;;;;;;;2.33;1.60;;;17.70;99.90;;;;;;5019897;28;20041;-85
2022/09/03 08:11:59;;;;;;;3.60;1.90;;;17.80;99.90;;;;;;4993090;28;20475;-85
2022/09/03 08:14:24;;;;;;;3.10;1.63;;;17.90;99.90;;;;;;4996412;28;20030;-84
2022/09/03 08:16:50;;;;;;;2.90;1.58;;;18.00;99.90;;;;;;5037902;28;20029;-84
2022/09/03 08:19:22;;;;;;;3.55;1.75;;;18.10;99.90;;;;;;4999486;28;20285;-85
2022/09/03 08:21:47;;;;;;;3.70;1.95;;;18.20;99.90;;;;;;4979917;28;20939;-85
2022/09/03 08:24:16;;;;;;;3.22;1.60;;;18.20;99.90;;;;;;5022805;28;20155;-84
2022/09/03 08:26:45;;;;;;;2.88;1.80;;;18.30;99.90;;;;;;4992472;28;20114;-85
2022/09/03 08:29:32;;;;;;;2.78;1.70;;;18.40;99.90;;;;;;5038334;28;20079;-84
2022/09/03 08:31:58;;;;;;;2.03;1.70;;;18.60;99.90;;;;;;5022785;28;20451;-84
2022/09/03 08:34:25;;;;;;;5.15;1.85;;;18.80;99.90;;;;;;5027482;28;20064;-84
2022/09/03 08:36:51;;;;;;;1.58;1.45;;;18.90;99.90;;;;;;5024705;28;20037;-85
2022/09/03 08:39:17;;;;;;;2.92;1.67;;;19.00;99.90;;;;;;5000978;28;20057;-84
2022/09/03 08:41:46;;;;;;;1.88;1.63;;;19.00;99.90;;;;;;5019824;28;20068;-84
2022/09/03 08:44:15;;;;;;;3.10;1.70;;;19.20;99.90;;;;;;4997970;28;21095;-85
2022/09/03 08:46:50;;;;;;;5.13;1.50;;;19.40;99.90;;;;;;5019527;28;20349;-85
2022/09/03 08:49:23;;;;;;;1.92;1.60;;;19.50;99.90;;;;;;5038265;28;20042;-85
2022/09/03 08:51:51;;;;;;;4.30;1.50;;;19.70;99.90;;;;;;4989891;28;20114;-85
2022/09/03 08:54:19;;;;;;;2.28;1.80;;;19.80;99.90;;;;;;4983168;28;20042;-84
2022/09/03 08:56:45;;;;;;;6.13;1.90;;;19.80;99.90;;;;;;5005305;28;20529;-84
2022/09/03 08:59:10;;;;;;;3.58;1.60;;;19.90;99.90;;;;;;4993275;28;20050;-84
2022/09/03 09:02:06;;;;;;;2.25;1.60;;;20.10;99.90;;;;;;4994358;28;20049;-84
2022/09/03 09:05:02;;;;;;;3.15;1.42;;;20.10;99.90;;;;;;4989576;28;20043;-85
2022/09/03 09:08:05;;;;;;;5.13;1.80;;;20.30;99.90;;;;;;5036958;28;20133;-84
2022/09/03 09:10:45;;;;;;;3.03;1.40;;;20.40;99.90;;;;;;4991167;28;20124;-85
2022/09/03 09:13:15;;;;;;;7.07;1.88;;;20.60;99.90;;;;;;5014183;28;20335;-84
2022/09/03 09:16:09;;;;;;;3.90;1.50;;;20.40;99.90;;;;;;4998132;28;20042;-83
2022/09/03 09:19:04;;;;;;;4.40;1.60;;;20.60;99.90;;;;;;4995382;28;20042;-83
2022/09/03 09:21:44;;;;;;;5.07;1.70;;;20.80;99.90;;;;;;4981722;28;20415;-83
2022/09/03 09:24:25;;;;;;;3.75;1.50;;;21.00;99.90;;;;;;5019479;28;20394;-83
2022/09/03 09:26:59;;;;;;;4.13;1.77;;;21.20;99.90;;;;;;4996205;28;20457;-83
2022/09/03 09:29:33;;;;;;;2.40;1.50;;;21.40;99.90;;;;;;5008004;28;20044;-84
2022/09/03 09:31:58;;;;;;;3.85;1.70;;;21.60;99.90;;;;;;5021697;28;20045;-83
2022/09/03 09:34:24;;;;;;;2.00;1.27;;;21.80;99.90;;;;;;5036510;28;20038;-83
2022/09/03 09:36:53;;;;;;;4.38;1.60;;;21.90;99.90;;;;;;4992150;28;20056;-83
2022/09/03 09:39:19;;;;;;;3.97;1.58;;;21.90;99.90;;;;;;4987826;28;20038;-83
2022/09/03 09:42:09;;;;;;;2.53;1.58;;;22.00;99.90;;;;;;5032986;28;20354;-83
2022/09/03 09:44:37;;;;;;;3.50;1.50;;;22.20;99.90;;;;;;5006063;28;20104;-83
2022/09/03 09:47:10;;;;;;;5.30;1.60;;;22.40;99.90;;;;;;5021669;28;20053;-83
2022/09/03 09:49:58;;;;;;;5.38;1.65;;;22.40;99.90;;;;;;5019287;28;20033;-83
2022/09/03 09:52:28;;;;;;;2.80;1.40;;;22.50;99.90;;;;;;4975680;28;20345;-83
2022/09/03 09:55:10;;;;;;;3.30;1.40;;;22.70;99.90;;;;;;5023107;28;20030;-83
2022/09/03 09:57:37;;;;;;;2.72;1.25;;;22.90;99.90;;;;;;5010898;28;20102;-83
2022/09/03 10:00:15;;;;;;;4.38;1.52;;;22.80;99.90;;;;;;4999053;28;20124;-83
2022/09/03 10:02:50;;;;;;;4.90;1.30;;;23.00;99.90;;;;;;5000965;28;20501;-83
2022/09/03 10:05:29;;;;;;;3.80;1.40;;;23.00;99.90;;;;;;4986535;28;20407;-83
2022/09/03 10:08:18;;;;;;;3.97;1.55;;;23.10;99.90;;;;;;4999901;28;20561;-82
2022/09/03 10:10:49;;;;;;;3.60;1.48;;;23.20;99.90;;;;;;4981317;28;20644;-83
2022/09/03 10:13:29;;;;;;;4.55;1.17;;;23.10;99.90;;;;;;5004659;28;20037;-83
2022/09/03 10:16:03;;;;;;;2.45;1.27;;;23.50;99.90;;;;;;4986806;28;20070;-82
2022/09/03 10:18:53;;;;;;;6.10;1.80;;;23.70;99.90;;;;;;4982601;28;20095;-83
2022/09/03 10:21:57;;;;;;;2.55;1.27;;;23.60;99.90;;;;;;5004531;28;20331;-83
2022/09/03 10:24:40;;;;;;;1.30;1.17;;;23.80;99.90;;;;;;4988828;28;20060;-83
2022/09/03 10:27:13;;;;;;;2.40;1.35;;;24.00;99.90;;;;;;5010651;28;20034;-82
2022/09/03 10:29:40;;;;;;;17.55;2.60;;;24.20;99.90;;;;;;5003995;28;20108;-83
2022/09/03 10:32:27;;;;;;;8.90;2.30;;;24.20;99.90;;;;;;4994915;28;20056;-83
2022/09/03 10:35:12;;;;;;;4.85;1.20;;;24.40;99.90;;;;;;4986923;28;20045;-83
2022/09/03 10:37:39;;;;;;;12.25;2.15;;;24.50;99.90;;;;;;5019807;28;20049;-82
2022/09/03 10:40:17;;;;;;;11.55;2.25;;;24.30;99.90;;;;;;4984576;28;20037;-83
2022/09/03 10:42:58;;;;;;;8.93;1.50;;;24.70;99.90;;;;;;5019499;28;20026;-82
2022/09/03 10:45:35;;;;;;;2.75;1.00;;;24.70;99.90;;;;;;5005359;28;20092;-82
2022/09/03 10:48:37;;;;;;;2.28;0.88;;;24.70;99.90;;;;;;4989871;28;20100;-82
2022/09/03 10:51:12;;;;;;;2.53;1.25;;;24.80;99.90;;;;;;4993301;28;20037;-82
2022/09/03 10:54:07;;;;;;;5.60;1.40;;;24.80;99.90;;;;;;5027558;28;20034;-83
2022/09/03 10:56:49;;;;;;;3.70;1.10;;;25.10;99.90;;;;;;5014456;28;20106;-83
2022/09/03 10:59:53;;;;;;;3.38;1.13;;;24.90;99.90;;;;;;5022097;28;20073;-82
2022/09/03 11:02:34;;;;;;;4.40;1.45;;;25.00;99.60;;;;;;5032983;28;20030;-82
2022/09/03 11:05:11;;;;;;;4.28;1.20;;;25.30;97.50;;;;;;4988471;28;20208;-82
2022/09/03 11:07:51;;;;;;;2.83;1.30;;;25.30;97.00;;;;;;5018870;28;20140;-82
2022/09/03 11:10:39;;;;;;;3.15;1.20;;;25.40;93.30;;;;;;4988107;28;20064;-82
2022/09/03 11:13:12;;;;;;;1.45;1.08;;;25.30;87.80;;;;;;5012582;28;20068;-82
2022/09/03 11:16:00;;;;;;;2.85;1.23;;;25.60;89.60;;;;;;4983756;28;20296;-82
2022/09/03 11:18:28;;;;;;;2.05;1.00;;;25.80;85.60;;;;;;5004951;28;20460;-82
2022/09/03 11:20:59;;;;;;;4.65;1.20;;;25.90;83.50;;;;;;5026717;28;20049;-82
2022/09/03 11:23:28;;;;;;;2.65;1.30;;;25.70;78.80;;;;;;5027625;28;20104;-83
2022/09/03 11:26:01;;;;;;;3.40;1.20;;;25.80;83.80;;;;;;4997722;28;20041;-82
2022/09/03 11:28:45;;;;;;;3.70;1.30;;;25.80;70.20;;;;;;5010752;28;20042;-83
2022/09/03 11:32:00;;;;;;;6.63;1.30;;;26.00;73.40;;;;;;5016443;28;20033;-82
2022/09/03 11:34:32;;;;;;;2.88;1.30;;;26.00;62.10;;;;;;4958957;28;20041;-82
2022/09/03 11:37:26;;;;;;;3.22;1.00;;;26.10;60.00;;;;;;4991565;28;20370;-82
2022/09/03 11:40:06;;;;;;;2.08;1.08;;;26.30;59.30;;;;;;4974257;28;20236;-82
2022/09/03 11:42:38;;;;;;;4.97;1.10;;;26.40;59.70;;;;;;4991158;28;20022;-82
2022/09/03 11:45:35;;;;;;;5.10;1.30;;;26.50;52.30;;;;;;5015525;28;20046;-82
2022/09/03 11:48:01;;;;;;;3.15;1.27;;;26.70;51.50;;;;;;5018179;28;20049;-82
2022/09/03 11:50:33;;;;;;;3.72;1.13;;;26.50;44.80;;;;;;4989686;28;20042;-82
2022/09/03 11:53:09;;;;;;;7.22;1.30;;;26.60;40.40;;;;;;5021587;28;20107;-82
2022/09/03 11:55:55;;;;;;;5.55;1.25;;;26.60;39.10;;;;;;5007455;28;20042;-82
2022/09/03 11:58:26;;;;;;;6.95;1.30;;;26.80;38.80;;;;;;5017395;28;20525;-82
2022/09/03 12:00:53;;;;;;;4.03;1.15;;;26.50;27.80;;;;;;5034201;28;20504;-82
2022/09/03 12:03:35;;;;;;;6.18;1.25;;;26.70;26.00;;;;;;5010241;28;20046;-82
2022/09/03 12:06:21;;;;;;;1.70;1.17;;;26.40;22.00;;;;;;5015500;28;20041;-82
2022/09/03 12:09:09;;;;;;;3.40;1.45;;;26.10;17.40;;;;;;5029060;28;20140;-82
2022/09/03 12:11:46;;;;;;;4.82;1.30;;;26.70;22.80;;;;;;4992247;28;20049;-82
2022/09/03 12:14:48;;;;;;;3.67;1.10;;;26.90;22.30;;;;;;5008300;28;20065;-82
2022/09/03 12:17:37;;;;;;;1.98;1.10;;;26.90;19.20;;;;;;5016328;28;20052;-82
2022/09/03 12:20:11;;;;;;;1.58;0.90;;;27.10;15.50;;;;;;5015701;28;20556;-82
2022/09/03 12:22:38;;;;;;;1.55;1.05;;;27.20;23.40;;;;;;4993117;28;20489;-82
2022/09/03 12:25:14;;;;;;;3.35;1.30;;;27.60;16.50;;;;;;5018422;28;20043;-82
2022/09/03 12:27:44;;;;;;;2.58;1.20;;;27.40;11.80;;;;;;5001917;28;20049;-82
2022/09/03 12:30:21;;;;;;;2.38;1.10;;;27.30;8.20;;;;;;5004389;28;20168;-82
2022/09/03 12:32:47;;;;;;;3.42;1.30;;;27.40;8.30;;;;;;5021807;28;20470;-82
2022/09/03 12:35:23;;;;;;;1.80;1.00;;;27.70;9.30;;;;;;5001932;28;20032;-82
2022/09/03 12:37:51;;;;;;;2.83;1.05;;;27.70;5.20;;;;;;5025826;28;20091;-82
2022/09/03 12:40:20;;;;;;;2.78;1.05;;;27.40;1.10;;;;;;4996221;28;20169;-83
2022/09/03 12:42:47;;;;;;;3.78;1.00;;;27.80;2.30;;;;;;4981573;28;20045;-82
2022/09/03 12:45:15;;;;;;;3.17;1.02;;;28.00;1.30;;;;;;5025936;28;20312;-83
2022/09/03 12:47:42;;;;;;;1.05;0.98;;;27.60;1.00;;;;;;4989189;28;20477;-82
2022/09/03 12:50:16;;;;;;;3.05;1.02;;;27.60;1.00;;;;;;5020427;28;20179;-82
2022/09/03 12:52:47;;;;;;;3.08;0.90;;;27.80;1.00;;;;;;4999784;28;20378;-82
2022/09/03 12:55:25;;;;;;;3.10;1.13;;;27.70;1.00;;;;;;4999429;28;20034;-82
2022/09/03 12:58:04;;;;;;;1.15;1.00;;;28.00;1.00;;;;;;4997485;28;20041;-81
2022/09/03 13:00:33;;;;;;;3.22;1.08;;;28.30;1.00;;;;;;4990051;28;20128;-82
2022/09/03 13:03:05;;;;;;;2.85;1.02;;;28.30;1.00;;;;;;5006637;28;20037;-82
2022/09/03 13:05:44;;;;;;;2.90;1.20;;;28.50;1.00;;;;;;5017883;28;20298;-82
2022/09/03 13:08:18;;;;;;;3.55;1.10;;;28.30;1.00;;;;;;4983763;28;20054;-82
2022/09/03 13:10:44;;;;;;;4.43;1.10;;;28.40;1.00;;;;;;5034833;28;20042;-82
2022/09/03 13:13:32;;;;;;;5.35;1.42;;;28.50;1.00;;;;;;5036575;28;20034;-82
2022/09/03 13:16:20;;;;;;;11.18;1.48;;;28.20;1.00;;;;;;5029372;28;20044;-82
2022/09/03 13:19:12;;;;;;;3.97;1.02;;;28.60;1.00;;;;;;4969630;28;20497;-82
2022/09/03 13:22:12;;;;;;;3.67;1.15;;;28.00;1.00;;;;;;5003284;28;20386;-81
2022/09/03 13:24:59;;;;;;;9.40;1.40;;;28.80;1.00;;;;;;5005566;28;20046;-82